Aviation Digital Data Service (ADDS)

Output produced by METARs form (0109 UTC 24 May 2022)
found at http://www.aviationweather.gov/metar/data/
 
VNKT 240050Z VRB02KT 6000 FEW015 SCT030 BKN100 19/17 Q1013 NOSIG
TAF VNKT 232300Z 2400/2424 00000KT 6000 FEW015 SCT030 BKN100 
     BECMG 2404/2405 13006KT 7000 FEW020 SCT030 BKN100 
     BECMG 2407/2409 25010KT 8000 FEW020 SCT030 BKN100 
     PROB40 2408/2414 VRB12KT 5000 -TSRA FEW025CB 
     BECMG 2414/2415 22004KT 7000 FEW015 SCT025